createdAt,value
2023-05-20T00:01:00.680Z,21.77
2023-05-20T00:03:30.505Z,21.88
2023-05-20T00:05:58.956Z,21.88
2023-05-20T00:08:27.419Z,21.92
2023-05-20T00:10:55.717Z,21.93
2023-05-20T00:13:25.164Z,21.94
2023-05-20T00:15:54.469Z,21.92
2023-05-20T00:18:22.693Z,21.92
2023-05-20T00:20:51.327Z,21.85
2023-05-20T00:23:19.608Z,21.73
2023-05-20T00:25:48.074Z,21.67
2023-05-20T00:28:16.522Z,21.61
2023-05-20T00:30:44.782Z,21.58
2023-05-20T00:33:13.592Z,21.54
2023-05-20T00:35:41.935Z,21.42
2023-05-20T00:38:10.241Z,21.39
2023-05-20T00:40:38.509Z,21.40
2023-05-20T00:43:06.820Z,21.37
2023-05-20T00:45:35.408Z,21.27
2023-05-20T00:48:04.942Z,21.15
2023-05-20T00:50:33.631Z,21.05
2023-05-20T00:53:01.981Z,20.99
2023-05-20T00:55:30.284Z,20.90
2023-05-20T00:57:58.699Z,20.78
2023-05-20T01:00:26.924Z,20.73
2023-05-20T01:02:57.860Z,20.71
2023-05-20T01:05:26.197Z,20.67
2023-05-20T01:07:54.706Z,20.57
2023-05-20T01:10:28.539Z,20.45
2023-05-20T01:13:00.350Z,20.39
2023-05-20T01:15:29.585Z,20.33
2023-05-20T01:18:02.635Z,20.26
2023-05-20T01:20:33.282Z,20.15
2023-05-20T01:23:01.756Z,20.10
2023-05-20T01:25:30.071Z,20.09
2023-05-20T01:27:58.966Z,19.95
2023-05-20T01:30:31.860Z,19.87
2023-05-20T01:33:06.144Z,19.87
2023-05-20T01:35:34.861Z,19.90
2023-05-20T01:38:06.324Z,19.90
2023-05-20T01:40:35.662Z,19.84
2023-05-20T01:43:05.393Z,19.74
2023-05-20T01:45:34.510Z,19.58
2023-05-20T01:48:03.925Z,19.51
2023-05-20T01:50:32.202Z,19.44
2023-05-20T01:53:00.528Z,19.40
2023-05-20T01:55:28.811Z,19.28
2023-05-20T01:57:57.084Z,19.22
2023-05-20T02:00:25.486Z,19.16
2023-05-20T02:02:53.791Z,19.11
2023-05-20T02:05:22.288Z,19.00
2023-05-20T02:07:50.878Z,18.97
2023-05-20T02:10:19.146Z,18.96
2023-05-20T02:12:48.727Z,18.87
2023-05-20T02:15:17.107Z,18.83
2023-05-20T02:17:45.438Z,18.77
2023-05-20T02:20:14.661Z,18.71
2023-05-20T02:22:42.943Z,18.64
2023-05-20T02:25:11.402Z,18.58
2023-05-20T02:27:40.754Z,18.55
2023-05-20T02:30:09.929Z,18.50
2023-05-20T02:32:39.073Z,18.43
2023-05-20T02:35:07.665Z,18.32
2023-05-20T02:37:35.977Z,18.23
2023-05-20T02:40:04.258Z,18.18
2023-05-20T02:42:32.556Z,18.20
2023-05-20T02:45:00.807Z,18.11
2023-05-20T02:47:29.226Z,18.06
2023-05-20T02:49:57.577Z,18.03
2023-05-20T02:52:25.830Z,17.96
2023-05-20T02:54:54.130Z,17.85
2023-05-20T02:57:22.524Z,17.74
2023-05-20T02:59:51.171Z,17.62
2023-05-20T03:02:19.579Z,17.56
2023-05-20T03:04:48.072Z,17.52
2023-05-20T03:07:20.301Z,17.42
2023-05-20T03:09:48.691Z,17.38
2023-05-20T03:12:16.992Z,17.32
2023-05-20T03:14:45.248Z,17.25
2023-05-20T03:17:13.527Z,17.24
2023-05-20T03:19:42.085Z,17.22
2023-05-20T03:22:10.286Z,17.22
2023-05-20T03:24:38.569Z,17.16
2023-05-20T03:27:07.715Z,17.03
2023-05-20T03:29:36.003Z,16.92
2023-05-20T03:32:04.277Z,16.84
2023-05-20T03:34:32.752Z,16.82
2023-05-20T03:37:01.200Z,16.75
2023-05-20T03:39:29.515Z,16.72
2023-05-20T03:41:57.751Z,16.68
2023-05-20T03:44:26.013Z,16.62
2023-05-20T03:46:54.308Z,16.60
2023-05-20T03:49:22.564Z,16.62
2023-05-20T03:51:51.137Z,16.62
2023-05-20T03:54:19.361Z,16.60
2023-05-20T03:56:47.879Z,16.57
2023-05-20T03:59:16.350Z,16.54
2023-05-20T04:01:44.669Z,16.48
2023-05-20T04:04:13.083Z,16.46
2023-05-20T04:06:41.459Z,16.41
2023-05-20T04:09:09.869Z,16.39
2023-05-20T04:11:38.136Z,16.40
2023-05-20T04:14:06.439Z,16.36
2023-05-20T04:16:34.660Z,16.35
2023-05-20T04:19:03.547Z,16.32
2023-05-20T04:21:32.498Z,16.30
2023-05-20T04:24:00.795Z,16.26
2023-05-20T04:26:29.847Z,16.21
2023-05-20T04:28:59.917Z,16.17
2023-05-20T04:31:28.218Z,16.18
2023-05-20T04:33:56.783Z,16.11
2023-05-20T04:36:29.507Z,16.07
2023-05-20T04:38:58.291Z,16.01
2023-05-20T04:41:26.536Z,15.95
2023-05-20T04:43:54.758Z,15.92
2023-05-20T04:46:23.038Z,15.88
2023-05-20T04:48:51.686Z,15.83
2023-05-20T04:51:19.941Z,15.82
2023-05-20T04:53:48.193Z,15.82
2023-05-20T04:56:16.640Z,15.77
2023-05-20T04:58:44.898Z,15.75
2023-05-20T05:01:13.142Z,15.71
2023-05-20T05:03:41.438Z,15.70
2023-05-20T05:06:09.697Z,15.70
2023-05-20T05:08:38.165Z,15.69
2023-05-20T05:11:09.766Z,15.65
2023-05-20T05:13:37.998Z,15.61
2023-05-20T05:16:06.633Z,15.57
2023-05-20T05:18:34.870Z,15.56
2023-05-20T05:21:05.095Z,15.55
2023-05-20T05:23:34.425Z,15.55
2023-05-20T05:26:02.702Z,15.51
2023-05-20T05:28:31.286Z,15.49
2023-05-20T05:30:59.555Z,15.45
2023-05-20T05:33:27.837Z,15.46
2023-05-20T05:35:57.649Z,15.40
2023-05-20T05:38:26.635Z,15.36
2023-05-20T05:40:54.986Z,15.36
2023-05-20T05:43:23.269Z,15.40
2023-05-20T05:45:51.875Z,15.36
2023-05-20T05:48:20.148Z,15.34
2023-05-20T05:50:48.507Z,15.30
2023-05-20T05:53:17.027Z,15.23
2023-05-20T05:55:47.132Z,15.21
2023-05-20T05:58:15.372Z,15.20
2023-05-20T06:00:43.643Z,15.21
2023-05-20T06:03:12.037Z,15.17
2023-05-20T06:05:40.332Z,15.10
2023-05-20T06:08:08.980Z,15.07
2023-05-20T06:10:37.257Z,15.02
2023-05-20T06:13:05.588Z,15.02
2023-05-20T06:15:34.008Z,15.02
2023-05-20T06:18:02.448Z,15.03
2023-05-20T06:20:30.750Z,15.05
2023-05-20T06:22:59.085Z,15.06
2023-05-20T06:25:27.401Z,15.11
2023-05-20T06:27:55.634Z,15.09
2023-05-20T06:30:23.907Z,15.05
2023-05-20T06:32:52.513Z,14.99
2023-05-20T06:35:21.193Z,14.92
2023-05-20T06:37:49.527Z,14.91
2023-05-20T06:40:18.181Z,14.91
2023-05-20T06:42:46.627Z,14.88
2023-05-20T06:45:14.897Z,14.80
2023-05-20T06:47:43.231Z,14.77
2023-05-20T06:50:12.189Z,14.75
2023-05-20T06:52:40.448Z,14.76
2023-05-20T06:55:09.063Z,14.74
2023-05-20T06:57:37.544Z,14.71
2023-05-20T07:00:06.942Z,14.69
2023-05-20T07:02:35.373Z,14.68
2023-05-20T07:05:03.613Z,14.68
2023-05-20T07:07:31.877Z,14.65
2023-05-20T07:10:00.217Z,14.61
2023-05-20T07:12:28.486Z,14.64
2023-05-20T07:14:56.666Z,14.64
2023-05-20T07:17:25.702Z,14.62
2023-05-20T07:19:53.978Z,14.63
2023-05-20T07:22:22.122Z,14.63
2023-05-20T07:24:50.355Z,14.53
2023-05-20T07:27:18.551Z,14.47
2023-05-20T07:29:46.927Z,14.44
2023-05-20T07:32:15.146Z,14.43
2023-05-20T07:34:43.413Z,14.41
2023-05-20T07:37:13.552Z,14.40
2023-05-20T07:39:41.828Z,14.40
2023-05-20T07:42:10.063Z,14.41
2023-05-20T07:44:38.245Z,14.41
2023-05-20T07:47:06.892Z,14.40
2023-05-20T07:49:35.099Z,14.43
2023-05-20T07:52:03.394Z,14.44
2023-05-20T07:54:31.759Z,14.45
2023-05-20T07:57:01.157Z,14.45
2023-05-20T07:59:29.342Z,14.40
2023-05-20T08:01:58.045Z,14.40
2023-05-20T08:04:27.926Z,14.40
2023-05-20T08:06:56.691Z,14.37
2023-05-20T08:09:24.967Z,14.37
2023-05-20T08:11:53.167Z,14.36
2023-05-20T08:14:21.383Z,14.35
2023-05-20T08:16:51.090Z,14.34
2023-05-20T08:19:21.465Z,14.35
2023-05-20T08:21:50.217Z,14.35
2023-05-20T08:24:18.526Z,14.35
2023-05-20T08:26:46.752Z,14.33
2023-05-20T08:29:14.986Z,14.35
2023-05-20T08:31:43.208Z,14.36
2023-05-20T08:34:11.406Z,14.37
2023-05-20T08:36:40.768Z,14.41
2023-05-20T08:39:08.926Z,14.44
2023-05-20T08:41:38.168Z,14.47
2023-05-20T08:44:07.202Z,14.50
2023-05-20T08:46:36.996Z,14.53
2023-05-20T08:49:05.244Z,14.54
2023-05-20T08:51:34.759Z,14.57
2023-05-20T08:54:03.834Z,14.59
2023-05-20T08:56:34.708Z,14.63
2023-05-20T08:59:02.966Z,14.66
2023-05-20T09:01:31.198Z,14.64
2023-05-20T09:03:59.376Z,14.63
2023-05-20T09:06:27.610Z,14.63
2023-05-20T09:08:55.858Z,14.63
2023-05-20T09:11:24.637Z,14.60
2023-05-20T09:13:52.781Z,14.59
2023-05-20T09:16:21.166Z,14.58
2023-05-20T09:18:49.680Z,14.60
2023-05-20T09:21:17.866Z,14.58
2023-05-20T09:23:50.160Z,14.55
2023-05-20T09:26:19.858Z,14.55
2023-05-20T09:28:48.107Z,14.57
2023-05-20T09:31:16.547Z,14.62
2023-05-20T09:33:45.377Z,14.62
2023-05-20T09:36:16.604Z,14.59
2023-05-20T09:38:48.232Z,14.58
2023-05-20T09:41:16.510Z,14.60
2023-05-20T09:43:45.777Z,14.63
2023-05-20T09:46:15.055Z,14.53
2023-05-20T09:48:44.193Z,14.52
2023-05-20T09:51:14.167Z,14.54
2023-05-20T09:53:43.934Z,14.55
2023-05-20T09:56:12.478Z,14.56
2023-05-20T09:58:43.488Z,14.56
2023-05-20T10:01:11.979Z,14.57
2023-05-20T10:03:42.649Z,14.60
2023-05-20T10:06:35.040Z,14.64
2023-05-20T10:09:32.222Z,14.63
2023-05-20T10:12:42.166Z,14.62
2023-05-20T10:15:51.694Z,14.58
2023-05-20T10:18:28.846Z,14.57
2023-05-20T10:20:57.174Z,14.58
2023-05-20T10:23:28.943Z,14.54
2023-05-20T10:25:58.580Z,14.54
2023-05-20T10:28:37.905Z,14.53
2023-05-20T10:31:21.948Z,14.52
2023-05-20T10:33:53.528Z,14.54
2023-05-20T10:36:29.093Z,14.60
2023-05-20T10:38:59.263Z,14.60
2023-05-20T10:41:29.021Z,14.60
2023-05-20T10:44:06.799Z,14.63
2023-05-20T10:46:53.970Z,14.62
2023-05-20T10:49:27.102Z,14.65
2023-05-20T10:51:56.470Z,14.67
2023-05-20T10:54:24.847Z,14.65
2023-05-20T10:56:54.539Z,14.67
2023-05-20T10:59:23.194Z,14.64
2023-05-20T11:01:52.785Z,14.65
2023-05-20T11:04:21.606Z,14.67
2023-05-20T11:06:56.833Z,14.64
2023-05-20T11:09:25.111Z,14.64
2023-05-20T11:11:56.670Z,14.66
2023-05-20T11:14:24.944Z,14.68
2023-05-20T11:16:55.093Z,14.72
2023-05-20T11:19:23.447Z,14.77
2023-05-20T11:21:52.390Z,14.80
2023-05-20T11:24:30.541Z,14.78
2023-05-20T11:26:58.960Z,14.74
2023-05-20T11:29:29.919Z,14.73
2023-05-20T11:31:58.230Z,14.75
2023-05-20T11:34:27.787Z,14.76
2023-05-20T11:37:00.303Z,14.77
2023-05-20T11:39:31.795Z,14.81
2023-05-20T11:42:00.105Z,14.84
2023-05-20T11:44:28.441Z,14.85
2023-05-20T11:47:02.533Z,14.83
2023-05-20T11:49:31.658Z,14.79
2023-05-20T11:51:59.884Z,14.78
2023-05-20T11:54:28.312Z,14.81
2023-05-20T11:56:57.431Z,14.81
2023-05-20T11:59:26.023Z,14.83
2023-05-20T12:01:54.349Z,14.87
2023-05-20T12:04:22.825Z,14.87
2023-05-20T12:06:51.514Z,14.89
2023-05-20T12:09:19.759Z,14.89
2023-05-20T12:11:48.051Z,14.88
2023-05-20T12:14:16.281Z,14.90
2023-05-20T12:16:44.541Z,14.88
2023-05-20T12:19:12.927Z,14.90
2023-05-20T12:21:41.158Z,14.90
2023-05-20T12:24:09.436Z,14.85
2023-05-20T12:26:37.742Z,14.82
2023-05-20T12:29:06.002Z,14.82
2023-05-20T12:31:35.116Z,14.75
2023-05-20T12:34:03.777Z,14.75
2023-05-20T12:36:32.448Z,14.72
2023-05-20T12:39:00.680Z,14.69
2023-05-20T12:41:28.917Z,14.72
2023-05-20T12:43:57.132Z,14.76
2023-05-20T12:46:25.684Z,14.77
2023-05-20T12:48:54.066Z,14.78
2023-05-20T12:51:22.303Z,14.76
2023-05-20T12:53:50.865Z,14.75
2023-05-20T12:56:20.193Z,14.74
2023-05-20T12:58:48.500Z,14.70
2023-05-20T13:01:16.795Z,14.73
2023-05-20T13:03:45.230Z,14.74
2023-05-20T13:06:13.617Z,14.76
2023-05-20T13:08:41.912Z,14.76
2023-05-20T13:11:10.157Z,14.80
2023-05-20T13:13:38.393Z,14.81
2023-05-20T13:16:07.269Z,14.80
2023-05-20T13:18:35.501Z,14.80
2023-05-20T13:21:03.779Z,14.78
2023-05-20T13:23:32.073Z,14.78
2023-05-20T13:26:00.578Z,14.77
2023-05-20T13:28:28.990Z,14.77
2023-05-20T13:30:57.277Z,14.77
2023-05-20T13:33:25.537Z,14.78
2023-05-20T13:35:53.825Z,14.79
2023-05-20T13:38:22.129Z,14.82
2023-05-20T13:40:50.549Z,14.84
2023-05-20T13:43:18.777Z,14.86
2023-05-20T13:45:47.007Z,14.85
2023-05-20T13:48:15.271Z,14.89
2023-05-20T13:50:43.533Z,14.88
2023-05-20T13:53:14.518Z,14.90
2023-05-20T13:55:42.871Z,14.85
2023-05-20T13:58:11.140Z,14.87
2023-05-20T14:00:39.805Z,14.91
2023-05-20T14:03:09.891Z,14.89
2023-05-20T14:05:38.197Z,14.92
2023-05-20T14:08:06.652Z,14.90
2023-05-20T14:10:35.453Z,14.93
2023-05-20T14:13:03.892Z,14.97
2023-05-20T14:15:32.272Z,15.04
2023-05-20T14:18:00.524Z,15.10
2023-05-20T14:20:28.777Z,15.14
2023-05-20T14:22:57.076Z,15.15
2023-05-20T14:25:25.244Z,15.17
2023-05-20T14:27:53.413Z,15.22
2023-05-20T14:30:21.822Z,15.22
2023-05-20T14:32:50.165Z,15.18
2023-05-20T14:35:19.111Z,15.17
2023-05-20T14:37:47.559Z,15.18
2023-05-20T14:40:16.257Z,15.23
2023-05-20T14:42:44.452Z,15.32
2023-05-20T14:45:12.759Z,15.40
2023-05-20T14:47:41.058Z,15.48
2023-05-20T14:50:09.634Z,15.47
2023-05-20T14:52:37.955Z,15.51
2023-05-20T14:55:06.741Z,15.50
2023-05-20T14:57:35.117Z,15.51
2023-05-20T15:00:03.302Z,15.52
2023-05-20T15:02:31.609Z,15.56
2023-05-20T15:04:59.940Z,15.61
2023-05-20T15:07:28.532Z,15.65
2023-05-20T15:09:56.718Z,15.71
2023-05-20T15:12:24.966Z,15.77
2023-05-20T15:14:53.166Z,15.80
2023-05-20T15:17:21.420Z,15.81
2023-05-20T15:19:49.915Z,15.82
2023-05-20T15:22:18.160Z,15.84
2023-05-20T15:24:46.322Z,15.90
2023-05-20T15:27:16.332Z,15.89
2023-05-20T15:29:44.798Z,15.91
2023-05-20T15:32:12.998Z,16.00
2023-05-20T15:34:41.254Z,16.04
2023-05-20T15:37:09.452Z,16.13
2023-05-20T15:39:40.575Z,16.20
2023-05-20T15:42:08.855Z,16.29
2023-05-20T15:44:37.327Z,16.37
2023-05-20T15:47:06.640Z,16.45
2023-05-20T15:49:34.895Z,16.54
2023-05-20T15:52:04.275Z,16.59
2023-05-20T15:54:33.789Z,16.64
2023-05-20T15:57:03.308Z,16.76
2023-05-20T15:59:31.674Z,17.01
2023-05-20T16:01:59.931Z,17.26
2023-05-20T16:04:28.210Z,17.42
2023-05-20T16:06:56.730Z,17.59
2023-05-20T16:09:24.957Z,17.80
2023-05-20T16:11:53.148Z,18.02
2023-05-20T16:14:21.390Z,18.12
2023-05-20T16:16:50.104Z,18.19
2023-05-20T16:19:18.405Z,18.20
2023-05-20T16:21:46.867Z,18.14
2023-05-20T16:24:15.570Z,18.08
2023-05-20T16:26:43.897Z,18.12
2023-05-20T16:29:13.039Z,18.16
2023-05-20T16:31:42.533Z,18.22
2023-05-20T16:34:10.796Z,18.24
2023-05-20T16:36:39.006Z,18.25
2023-05-20T16:39:07.817Z,18.29
2023-05-20T16:41:35.976Z,18.29
2023-05-20T16:44:04.172Z,18.30
2023-05-20T16:46:32.496Z,18.28
2023-05-20T16:49:00.696Z,18.28
2023-05-20T16:51:28.917Z,18.38
2023-05-20T16:53:57.418Z,18.48
2023-05-20T16:56:25.677Z,18.49
2023-05-20T16:58:54.930Z,18.52
2023-05-20T17:01:23.816Z,18.60
2023-05-20T17:03:52.345Z,18.70
2023-05-20T17:06:20.539Z,18.77
2023-05-20T17:08:48.751Z,18.80
2023-05-20T17:11:17.311Z,18.89
2023-05-20T17:13:45.512Z,18.93
2023-05-20T17:16:13.986Z,18.89
2023-05-20T17:18:42.262Z,18.93
2023-05-20T17:21:10.530Z,19.02
2023-05-20T17:23:38.696Z,19.08
2023-05-20T17:26:07.247Z,19.15
2023-05-20T17:28:35.451Z,19.18
2023-05-20T17:31:03.675Z,19.32
2023-05-20T17:33:32.381Z,19.38
2023-05-20T17:36:00.755Z,19.42
2023-05-20T17:38:28.999Z,19.50
2023-05-20T17:40:57.346Z,19.50
2023-05-20T17:43:26.451Z,19.48
2023-05-20T17:45:54.769Z,19.47
2023-05-20T17:48:22.989Z,19.54
2023-05-20T17:50:51.592Z,19.62
2023-05-20T17:53:22.310Z,19.71
2023-05-20T17:55:50.579Z,19.67
2023-05-20T17:58:18.804Z,19.61
2023-05-20T18:00:46.960Z,19.62
2023-05-20T18:03:15.200Z,19.73
2023-05-20T18:05:43.518Z,19.85
2023-05-20T18:08:12.603Z,19.86
2023-05-20T18:10:41.154Z,19.87
2023-05-20T18:13:09.396Z,19.95
2023-05-20T18:15:37.821Z,20.03
2023-05-20T18:18:06.289Z,20.06
2023-05-20T18:20:34.717Z,20.23
2023-05-20T18:23:03.119Z,20.33
2023-05-20T18:25:31.489Z,20.35
2023-05-20T18:27:59.711Z,20.40
2023-05-20T18:30:28.047Z,20.45
2023-05-20T18:32:57.868Z,20.49
2023-05-20T18:35:26.076Z,20.43
2023-05-20T18:37:54.360Z,20.50
2023-05-20T18:40:22.892Z,20.68
2023-05-20T18:42:51.535Z,20.63
2023-05-20T18:45:19.737Z,20.54
2023-05-20T18:47:48.063Z,20.46
2023-05-20T18:50:16.338Z,20.64
2023-05-20T18:52:44.644Z,20.85
2023-05-20T18:55:12.892Z,20.85
2023-05-20T18:57:41.205Z,20.95
2023-05-20T19:00:13.478Z,21.00
2023-05-20T19:02:42.530Z,21.15
2023-05-20T19:05:12.198Z,21.29
2023-05-20T19:07:40.621Z,21.33
2023-05-20T19:10:09.757Z,21.27
2023-05-20T19:12:38.047Z,21.30
2023-05-20T19:15:06.811Z,21.37
2023-05-20T19:17:35.131Z,21.47
2023-05-20T19:20:03.581Z,21.57
2023-05-20T19:22:31.820Z,21.55
2023-05-20T19:25:00.054Z,21.59
2023-05-20T19:27:28.417Z,21.78
2023-05-20T19:29:56.898Z,21.81
2023-05-20T19:32:25.155Z,21.81
2023-05-20T19:34:53.487Z,21.83
2023-05-20T19:37:23.161Z,21.92
2023-05-20T19:39:51.946Z,22.01
2023-05-20T19:42:20.272Z,22.09
2023-05-20T19:44:48.623Z,22.06
2023-05-20T19:47:17.217Z,21.94
2023-05-20T19:49:45.458Z,22.01
2023-05-20T19:52:13.707Z,21.98
2023-05-20T19:54:43.481Z,22.12
2023-05-20T19:57:12.174Z,22.21
2023-05-20T19:59:40.897Z,22.38
2023-05-20T20:02:09.271Z,22.46
2023-05-20T20:04:38.756Z,22.37
2023-05-20T20:07:08.429Z,22.44
2023-05-20T20:09:37.330Z,22.56
2023-05-20T20:12:07.734Z,22.61
2023-05-20T20:14:35.977Z,22.64
2023-05-20T20:17:04.242Z,22.79
2023-05-20T20:19:32.636Z,22.90
2023-05-20T20:22:00.949Z,23.05
2023-05-20T20:24:29.200Z,23.14
2023-05-20T20:26:57.655Z,23.39
2023-05-20T20:29:26.091Z,23.41
2023-05-20T20:31:55.184Z,23.49
2023-05-20T20:34:23.583Z,23.67
2023-05-20T20:36:54.009Z,23.81
2023-05-20T20:39:23.650Z,23.72
2023-05-20T20:41:53.004Z,23.70
2023-05-20T20:44:24.263Z,23.64
2023-05-20T20:46:53.600Z,23.62
2023-05-20T20:49:23.499Z,23.86
2023-05-20T20:51:54.008Z,23.95
2023-05-20T20:54:22.250Z,24.07
2023-05-20T20:56:51.151Z,24.28
2023-05-20T20:59:19.493Z,24.38
2023-05-20T21:01:47.760Z,24.41
2023-05-20T21:04:18.154Z,24.47
2023-05-20T21:06:50.072Z,24.40
2023-05-20T21:09:18.988Z,24.16
2023-05-20T21:11:50.204Z,24.16
2023-05-20T21:14:18.428Z,24.55
2023-05-20T21:16:46.783Z,24.88
2023-05-20T21:19:15.210Z,25.00
2023-05-20T21:21:43.513Z,24.82
2023-05-20T21:24:11.803Z,24.86
2023-05-20T21:26:40.052Z,24.82
2023-05-20T21:29:10.773Z,24.57
2023-05-20T21:31:39.677Z,24.47
2023-05-20T21:34:08.009Z,24.42
2023-05-20T21:36:37.097Z,24.43
2023-05-20T21:39:05.520Z,24.72
2023-05-20T21:41:34.062Z,24.90
2023-05-20T21:44:02.265Z,24.83
2023-05-20T21:46:30.551Z,24.75
2023-05-20T21:48:58.910Z,24.67
2023-05-20T21:51:27.170Z,24.88
2023-05-20T21:53:55.459Z,25.16
2023-05-20T21:56:24.078Z,25.02
2023-05-20T21:58:52.500Z,24.81
2023-05-20T22:01:20.797Z,24.42
2023-05-20T22:03:51.203Z,24.23
2023-05-20T22:06:22.311Z,24.19
2023-05-20T22:08:51.805Z,24.27
2023-05-20T22:11:20.774Z,24.41
2023-05-20T22:13:49.012Z,24.61
2023-05-20T22:16:17.642Z,24.66
2023-05-20T22:18:48.538Z,24.50
2023-05-20T22:21:16.833Z,24.47
2023-05-20T22:23:45.076Z,24.36
2023-05-20T22:26:13.367Z,24.40
2023-05-20T22:28:41.627Z,24.43
2023-05-20T22:31:10.054Z,24.34
2023-05-20T22:33:38.333Z,24.18
2023-05-20T22:36:07.132Z,24.12
2023-05-20T22:38:36.726Z,24.19
2023-05-20T22:41:05.485Z,24.31
2023-05-20T22:43:33.692Z,24.13
2023-05-20T22:46:02.011Z,23.84
2023-05-20T22:48:30.631Z,23.63
2023-05-20T22:50:59.208Z,23.52
2023-05-20T22:53:27.859Z,23.55
2023-05-20T22:55:56.664Z,23.38
2023-05-20T22:58:24.918Z,23.22
2023-05-20T23:00:53.583Z,23.25
2023-05-20T23:03:21.928Z,22.88
2023-05-20T23:05:50.294Z,22.54
2023-05-20T23:08:20.052Z,22.48
2023-05-20T23:10:48.386Z,22.42
2023-05-20T23:13:16.829Z,22.28
2023-05-20T23:15:49.424Z,22.17
2023-05-20T23:18:18.171Z,22.02
2023-05-20T23:20:46.460Z,21.80
2023-05-20T23:23:14.760Z,21.63
2023-05-20T23:25:45.040Z,21.31
2023-05-20T23:28:14.061Z,21.22
2023-05-20T23:30:42.276Z,21.25
2023-05-20T23:33:10.622Z,21.19
2023-05-20T23:35:39.411Z,21.11
2023-05-20T23:38:08.499Z,21.04
2023-05-20T23:40:37.019Z,20.99
2023-05-20T23:43:05.279Z,20.87
2023-05-20T23:45:33.729Z,20.77
2023-05-20T23:48:05.194Z,20.61
2023-05-20T23:50:33.562Z,20.62
2023-05-20T23:53:01.783Z,20.44
2023-05-20T23:55:30.017Z,20.36
2023-05-20T23:57:58.300Z,20.21
